sensor_id;sensor_type;location;lat;lon;timestamp;P1;durP1;ratioP1;P2;durP2;ratioP2
60306;SDS011;46155;52.364;6.580;2023-02-01T04:02:46;20.93;;;8.80;;
60306;SDS011;46155;52.364;6.580;2023-02-01T04:05:12;22.83;;;9.20;;
60306;SDS011;46155;52.364;6.580;2023-02-01T04:07:37;19.63;;;9.20;;
60306;SDS011;46155;52.364;6.580;2023-02-01T04:10:03;10.20;;;8.03;;
60306;SDS011;46155;52.364;6.580;2023-02-01T04:12:28;13.00;;;8.57;;
60306;SDS011;46155;52.364;6.580;2023-02-01T04:14:54;23.37;;;9.00;;
60306;SDS011;46155;52.364;6.580;2023-02-01T04:17:19;22.13;;;10.17;;
60306;SDS011;46155;52.364;6.580;2023-02-01T04:19:45;25.13;;;11.00;;
60306;SDS011;46155;52.364;6.580;2023-02-01T04:22:10;20.33;;;9.47;;
60306;SDS011;46155;52.364;6.580;2023-02-01T04:24:37;21.47;;;9.30;;
60306;SDS011;46155;52.364;6.580;2023-02-01T04:27:02;19.43;;;10.23;;
60306;SDS011;46155;52.364;6.580;2023-02-01T04:29:28;19.40;;;9.50;;
60306;SDS011;46155;52.364;6.580;2023-02-01T04:31:53;18.90;;;9.17;;
60306;SDS011;46155;52.364;6.580;2023-02-01T04:34:18;13.17;;;8.67;;
60306;SDS011;46155;52.364;6.580;2023-02-01T04:36:43;27.80;;;9.90;;
60306;SDS011;46155;52.364;6.580;2023-02-01T04:39:09;12.63;;;9.50;;
60306;SDS011;46155;52.364;6.580;2023-02-01T04:41:34;19.80;;;8.17;;
60306;SDS011;46155;52.364;6.580;2023-02-01T04:44:00;16.90;;;10.17;;
60306;SDS011;46155;52.364;6.580;2023-02-01T04:46:25;19.60;;;9.63;;
60306;SDS011;46155;52.364;6.580;2023-02-01T04:48:51;22.47;;;9.43;;
60306;SDS011;46155;52.364;6.580;2023-02-01T04:51:16;18.23;;;10.23;;
60306;SDS011;46155;52.364;6.580;2023-02-01T04:53:42;19.17;;;9.67;;
60306;SDS011;46155;52.364;6.580;2023-02-01T04:56:08;18.50;;;10.57;;
60306;SDS011;46155;52.364;6.580;2023-02-01T04:58:34;22.13;;;8.93;;
60306;SDS011;46155;52.364;6.580;2023-02-01T05:01:01;17.43;;;9.17;;
60306;SDS011;46155;52.364;6.580;2023-02-01T05:03:29;18.27;;;8.53;;
60306;SDS011;46155;52.364;6.580;2023-02-01T05:05:55;25.10;;;8.63;;
60306;SDS011;46155;52.364;6.580;2023-02-01T05:08:20;15.87;;;9.10;;
60306;SDS011;46155;52.364;6.580;2023-02-01T05:10:47;19.10;;;7.97;;
60306;SDS011;46155;52.364;6.580;2023-02-01T05:13:13;15.03;;;9.23;;
60306;SDS011;46155;52.364;6.580;2023-02-01T05:15:56;15.77;;;8.43;;
60306;SDS011;46155;52.364;6.580;2023-02-01T05:18:21;24.30;;;8.80;;
60306;SDS011;46155;52.364;6.580;2023-02-01T05:20:47;18.07;;;7.97;;
60306;SDS011;46155;52.364;6.580;2023-02-01T05:23:12;18.90;;;9.30;;
60306;SDS011;46155;52.364;6.580;2023-02-01T05:25:37;15.73;;;7.80;;
60306;SDS011;46155;52.364;6.580;2023-02-01T05:28:03;28.90;;;7.77;;
60306;SDS011;46155;52.364;6.580;2023-02-01T05:30:28;17.07;;;8.30;;
60306;SDS011;46155;52.364;6.580;2023-02-01T05:32:54;35.20;;;8.43;;
60306;SDS011;46155;52.364;6.580;2023-02-01T05:35:19;15.67;;;7.80;;
60306;SDS011;46155;52.364;6.580;2023-02-01T05:37:45;11.40;;;8.83;;
60306;SDS011;46155;52.364;6.580;2023-02-01T05:40:10;17.23;;;7.40;;
60306;SDS011;46155;52.364;6.580;2023-02-01T05:42:36;19.37;;;8.87;;
60306;SDS011;46155;52.364;6.580;2023-02-01T05:45:01;20.23;;;9.63;;
60306;SDS011;46155;52.364;6.580;2023-02-01T05:47:27;16.30;;;7.83;;
60306;SDS011;46155;52.364;6.580;2023-02-01T05:49:53;19.67;;;8.10;;
60306;SDS011;46155;52.364;6.580;2023-02-01T05:52:18;13.50;;;8.50;;
60306;SDS011;46155;52.364;6.580;2023-02-01T05:54:44;29.27;;;8.73;;
60306;SDS011;46155;52.364;6.580;2023-02-01T05:57:13;13.67;;;8.57;;
60306;SDS011;46155;52.364;6.580;2023-02-01T05:59:38;17.87;;;8.37;;
60306;SDS011;46155;52.364;6.580;2023-02-01T06:02:09;12.63;;;9.30;;
60306;SDS011;46155;52.364;6.580;2023-02-01T06:04:35;19.17;;;10.50;;
60306;SDS011;46155;52.364;6.580;2023-02-01T06:07:01;17.67;;;9.47;;
60306;SDS011;46155;52.364;6.580;2023-02-01T06:09:26;18.30;;;9.27;;
60306;SDS011;46155;52.364;6.580;2023-02-01T06:11:53;13.30;;;9.20;;
60306;SDS011;46155;52.364;6.580;2023-02-01T06:14:18;14.07;;;8.03;;
60306;SDS011;46155;52.364;6.580;2023-02-01T06:16:43;13.77;;;7.93;;
60306;SDS011;46155;52.364;6.580;2023-02-01T06:19:10;13.93;;;8.33;;
60306;SDS011;46155;52.364;6.580;2023-02-01T06:21:36;24.07;;;9.80;;
60306;SDS011;46155;52.364;6.580;2023-02-01T06:24:01;21.00;;;10.57;;
60306;SDS011;46155;52.364;6.580;2023-02-01T06:26:27;13.33;;;9.10;;
60306;SDS011;46155;52.364;6.580;2023-02-01T06:28:53;14.50;;;9.17;;
60306;SDS011;46155;52.364;6.580;2023-02-01T06:31:20;17.87;;;9.90;;
60306;SDS011;46155;52.364;6.580;2023-02-01T06:33:45;22.70;;;8.60;;
60306;SDS011;46155;52.364;6.580;2023-02-01T06:36:12;14.87;;;8.47;;
60306;SDS011;46155;52.364;6.580;2023-02-01T06:38:38;16.20;;;9.20;;
60306;SDS011;46155;52.364;6.580;2023-02-01T06:41:04;15.77;;;9.40;;
60306;SDS011;46155;52.364;6.580;2023-02-01T06:43:30;17.53;;;9.07;;
60306;SDS011;46155;52.364;6.580;2023-02-01T06:46:01;15.57;;;8.57;;
60306;SDS011;46155;52.364;6.580;2023-02-01T06:48:28;19.40;;;8.57;;
60306;SDS011;46155;52.364;6.580;2023-02-01T06:50:54;17.33;;;8.43;;
60306;SDS011;46155;52.364;6.580;2023-02-01T06:53:19;19.17;;;8.30;;
60306;SDS011;46155;52.364;6.580;2023-02-01T06:55:58;34.40;;;9.17;;
60306;SDS011;46155;52.364;6.580;2023-02-01T06:58:28;18.40;;;9.93;;
60306;SDS011;46155;52.364;6.580;2023-02-01T07:00:54;25.70;;;10.60;;
60306;SDS011;46155;52.364;6.580;2023-02-01T07:03:20;13.87;;;9.83;;
60306;SDS011;46155;52.364;6.580;2023-02-01T07:05:45;27.33;;;9.93;;
60306;SDS011;46155;52.364;6.580;2023-02-01T07:08:11;15.40;;;9.13;;
60306;SDS011;46155;52.364;6.580;2023-02-01T07:10:36;16.90;;;10.13;;
60306;SDS011;46155;52.364;6.580;2023-02-01T07:13:02;18.27;;;10.23;;
60306;SDS011;46155;52.364;6.580;2023-02-01T07:15:27;16.73;;;9.13;;
60306;SDS011;46155;52.364;6.580;2023-02-01T07:17:55;16.20;;;10.00;;
60306;SDS011;46155;52.364;6.580;2023-02-01T07:20:21;16.47;;;8.73;;
60306;SDS011;46155;52.364;6.580;2023-02-01T07:22:46;28.87;;;9.47;;
60306;SDS011;46155;52.364;6.580;2023-02-01T07:25:12;29.97;;;9.63;;
60306;SDS011;46155;52.364;6.580;2023-02-01T07:27:37;26.03;;;9.60;;
60306;SDS011;46155;52.364;6.580;2023-02-01T07:30:03;22.27;;;9.23;;
60306;SDS011;46155;52.364;6.580;2023-02-01T07:32:30;17.50;;;7.70;;
60306;SDS011;46155;52.364;6.580;2023-02-01T07:34:55;17.10;;;7.70;;
60306;SDS011;46155;52.364;6.580;2023-02-01T07:37:21;29.47;;;7.53;;
60306;SDS011;46155;52.364;6.580;2023-02-01T07:39:46;19.20;;;7.43;;
60306;SDS011;46155;52.364;6.580;2023-02-01T07:42:12;13.00;;;6.30;;
60306;SDS011;46155;52.364;6.580;2023-02-01T07:44:37;15.93;;;7.60;;
60306;SDS011;46155;52.364;6.580;2023-02-01T07:47:02;16.83;;;7.40;;
60306;SDS011;46155;52.364;6.580;2023-02-01T07:49:28;23.27;;;6.97;;
60306;SDS011;46155;52.364;6.580;2023-02-01T07:51:53;11.77;;;6.40;;
60306;SDS011;46155;52.364;6.580;2023-02-01T07:54:18;16.37;;;7.13;;
60306;SDS011;46155;52.364;6.580;2023-02-01T07:56:44;19.10;;;7.13;;
60306;SDS011;46155;52.364;6.580;2023-02-01T07:59:09;18.80;;;6.83;;
60306;SDS011;46155;52.364;6.580;2023-02-01T08:01:35;13.80;;;6.13;;
60306;SDS011;46155;52.364;6.580;2023-02-01T08:04:01;19.43;;;7.23;;
60306;SDS011;46155;52.364;6.580;2023-02-01T08:06:28;13.23;;;6.83;;
60306;SDS011;46155;52.364;6.580;2023-02-01T08:08:56;15.90;;;6.73;;
60306;SDS011;46155;52.364;6.580;2023-02-01T08:11:22;14.67;;;6.50;;
60306;SDS011;46155;52.364;6.580;2023-02-01T08:13:49;17.17;;;6.27;;
60306;SDS011;46155;52.364;6.580;2023-02-01T08:16:15;13.47;;;6.50;;
60306;SDS011;46155;52.364;6.580;2023-02-01T08:18:42;14.77;;;6.63;;
60306;SDS011;46155;52.364;6.580;2023-02-01T08:21:09;14.43;;;6.73;;
60306;SDS011;46155;52.364;6.580;2023-02-01T08:23:36;14.43;;;7.30;;
60306;SDS011;46155;52.364;6.580;2023-02-01T08:26:04;15.43;;;6.80;;
60306;SDS011;46155;52.364;6.580;2023-02-01T08:28:30;22.90;;;7.47;;
60306;SDS011;46155;52.364;6.580;2023-02-01T08:30:55;15.43;;;6.40;;
60306;SDS011;46155;52.364;6.580;2023-02-01T08:33:20;13.80;;;7.00;;
60306;SDS011;46155;52.364;6.580;2023-02-01T08:35:46;13.63;;;7.17;;
60306;SDS011;46155;52.364;6.580;2023-02-01T08:38:12;16.77;;;7.50;;
60306;SDS011;46155;52.364;6.580;2023-02-01T08:40:37;16.60;;;7.53;;
60306;SDS011;46155;52.364;6.580;2023-02-01T08:43:02;13.97;;;7.07;;
60306;SDS011;46155;52.364;6.580;2023-02-01T08:45:28;20.53;;;6.93;;
60306;SDS011;46155;52.364;6.580;2023-02-01T08:47:55;23.73;;;8.20;;
60306;SDS011;46155;52.364;6.580;2023-02-01T08:50:21;10.67;;;6.23;;
60306;SDS011;46155;52.364;6.580;2023-02-01T08:52:47;17.93;;;7.10;;
60306;SDS011;46155;52.364;6.580;2023-02-01T08:55:13;22.70;;;7.90;;
60306;SDS011;46155;52.364;6.580;2023-02-01T08:57:39;9.63;;;6.63;;
60306;SDS011;46155;52.364;6.580;2023-02-01T09:00:06;16.83;;;6.83;;
60306;SDS011;46155;52.364;6.580;2023-02-01T09:02:34;20.33;;;6.93;;
60306;SDS011;46155;52.364;6.580;2023-02-01T09:05:00;20.30;;;7.30;;
60306;SDS011;46155;52.364;6.580;2023-02-01T09:07:25;13.90;;;7.80;;
60306;SDS011;46155;52.364;6.580;2023-02-01T09:09:51;13.70;;;6.97;;
60306;SDS011;46155;52.364;6.580;2023-02-01T09:12:17;9.90;;;6.57;;
60306;SDS011;46155;52.364;6.580;2023-02-01T09:14:43;19.57;;;7.50;;
60306;SDS011;46155;52.364;6.580;2023-02-01T09:17:08;20.50;;;6.77;;
60306;SDS011;46155;52.364;6.580;2023-02-01T09:19:33;14.03;;;6.50;;
60306;SDS011;46155;52.364;6.580;2023-02-01T09:21:59;16.43;;;7.30;;
60306;SDS011;46155;52.364;6.580;2023-02-01T09:24:24;21.37;;;6.63;;
60306;SDS011;46155;52.364;6.580;2023-02-01T09:26:50;12.33;;;6.63;;
60306;SDS011;46155;52.364;6.580;2023-02-01T09:29:15;18.70;;;7.80;;
60306;SDS011;46155;52.364;6.580;2023-02-01T09:31:41;14.77;;;6.53;;
60306;SDS011;46155;52.364;6.580;2023-02-01T09:34:08;16.30;;;6.83;;
60306;SDS011;46155;52.364;6.580;2023-02-01T09:36:33;17.87;;;6.97;;
60306;SDS011;46155;52.364;6.580;2023-02-01T09:38:59;12.30;;;6.20;;
60306;SDS011;46155;52.364;6.580;2023-02-01T09:47:12;14.93;;;7.20;;
60306;SDS011;46155;52.364;6.580;2023-02-01T09:49:43;18.03;;;7.13;;
60306;SDS011;46155;52.364;6.580;2023-02-01T09:52:15;15.67;;;6.33;;
60306;SDS011;46155;52.364;6.580;2023-02-01T09:54:44;11.87;;;7.43;;
60306;SDS011;46155;52.364;6.580;2023-02-01T09:57:16;14.23;;;6.53;;
60306;SDS011;46155;52.364;6.580;2023-02-01T10:00:00;14.83;;;5.90;;
60306;SDS011;46155;52.364;6.580;2023-02-01T10:02:31;18.80;;;6.30;;
60306;SDS011;46155;52.364;6.580;2023-02-01T10:05:03;16.20;;;6.80;;
60306;SDS011;46155;52.364;6.580;2023-02-01T10:10:21;13.30;;;7.23;;
60306;SDS011;46155;52.364;6.580;2023-02-01T10:13:01;10.57;;;6.03;;
60306;SDS011;46155;52.364;6.580;2023-02-01T10:21:22;17.17;;;7.70;;
60306;SDS011;46155;52.364;6.580;2023-02-01T10:24:17;12.63;;;7.60;;
60306;SDS011;46155;52.364;6.580;2023-02-01T10:26:51;11.40;;;8.20;;
60306;SDS011;46155;52.364;6.580;2023-02-01T10:29:27;20.07;;;7.50;;
60306;SDS011;46155;52.364;6.580;2023-02-01T10:31:59;11.23;;;8.53;;
60306;SDS011;46155;52.364;6.580;2023-02-01T10:34:26;17.73;;;8.17;;
60306;SDS011;46155;52.364;6.580;2023-02-01T10:37:00;23.00;;;9.60;;
60306;SDS011;46155;52.364;6.580;2023-02-01T10:39:33;14.77;;;9.80;;
60306;SDS011;46155;52.364;6.580;2023-02-01T10:41:58;22.07;;;10.43;;
60306;SDS011;46155;52.364;6.580;2023-02-01T10:44:25;25.87;;;10.93;;
60306;SDS011;46155;52.364;6.580;2023-02-01T10:46:52;19.73;;;9.57;;
60306;SDS011;46155;52.364;6.580;2023-02-01T10:49:20;13.77;;;11.73;;
60306;SDS011;46155;52.364;6.580;2023-02-01T10:51:58;17.43;;;11.47;;
60306;SDS011;46155;52.364;6.580;2023-02-01T10:54:32;26.40;;;11.70;;
60306;SDS011;46155;52.364;6.580;2023-02-01T10:56:59;16.83;;;11.37;;
60306;SDS011;46155;52.364;6.580;2023-02-01T10:59:25;22.33;;;11.50;;
60306;SDS011;46155;52.364;6.580;2023-02-01T11:01:58;18.13;;;13.10;;
60306;SDS011;46155;52.364;6.580;2023-02-01T11:04:26;20.80;;;10.73;;
60306;SDS011;46155;52.364;6.580;2023-02-01T11:06:53;21.10;;;12.60;;
60306;SDS011;46155;52.364;6.580;2023-02-01T11:09:32;21.30;;;12.33;;
60306;SDS011;46155;52.364;6.580;2023-02-01T11:12:03;14.90;;;12.93;;
60306;SDS011;46155;52.364;6.580;2023-02-01T11:17:00;12.60;;;11.47;;
60306;SDS011;46155;52.364;6.580;2023-02-01T11:19:35;20.00;;;12.47;;
60306;SDS011;46155;52.364;6.580;2023-02-01T11:22:00;30.87;;;13.63;;
60306;SDS011;46155;52.364;6.580;2023-02-01T11:24:31;22.50;;;16.40;;
60306;SDS011;46155;52.364;6.580;2023-02-01T11:27:12;16.33;;;13.60;;
60306;SDS011;46155;52.364;6.580;2023-02-01T11:29:42;19.30;;;14.00;;
60306;SDS011;46155;52.364;6.580;2023-02-01T11:32:11;19.87;;;11.93;;
60306;SDS011;46155;52.364;6.580;2023-02-01T11:34:38;13.23;;;11.60;;
60306;SDS011;46155;52.364;6.580;2023-02-01T11:37:27;19.43;;;11.87;;
60306;SDS011;46155;52.364;6.580;2023-02-01T11:39:56;23.03;;;12.90;;
60306;SDS011;46155;52.364;6.580;2023-02-01T11:42:23;22.37;;;13.33;;
60306;SDS011;46155;52.364;6.580;2023-02-01T11:44:50;24.50;;;13.53;;
60306;SDS011;46155;52.364;6.580;2023-02-01T11:49:49;19.60;;;12.83;;
60306;SDS011;46155;52.364;6.580;2023-02-01T11:52:33;20.27;;;13.53;;
60306;SDS011;46155;52.364;6.580;2023-02-01T11:57:59;17.37;;;13.50;;
60306;SDS011;46155;52.364;6.580;2023-02-01T12:08:54;17.27;;;12.63;;
60306;SDS011;46155;52.364;6.580;2023-02-01T12:14:49;21.48;;;16.50;;
60306;SDS011;46155;52.364;6.580;2023-02-01T12:34:19;20.30;;;11.63;;
60306;SDS011;46155;52.364;6.580;2023-02-01T12:39:43;19.93;;;10.83;;
60306;SDS011;46155;52.364;6.580;2023-02-01T12:42:15;29.00;;;10.67;;
60306;SDS011;46155;52.364;6.580;2023-02-01T12:47:33;22.03;;;9.80;;
60306;SDS011;46155;52.364;6.580;2023-02-01T12:50:23;21.57;;;10.30;;
60306;SDS011;46155;52.364;6.580;2023-02-01T12:52:53;14.97;;;10.50;;
60306;SDS011;46155;52.364;6.580;2023-02-01T12:58:02;20.27;;;12.03;;
60306;SDS011;46155;52.364;6.580;2023-02-01T13:00:43;17.40;;;9.77;;
60306;SDS011;46155;52.364;6.580;2023-02-01T13:06:26;16.90;;;11.93;;
60306;SDS011;46155;52.364;6.580;2023-02-01T13:09:04;19.80;;;10.90;;
60306;SDS011;46155;52.364;6.580;2023-02-01T13:11:40;18.60;;;11.37;;
60306;SDS011;46155;52.364;6.580;2023-02-01T13:14:28;20.63;;;10.93;;
60306;SDS011;46155;52.364;6.580;2023-02-01T13:19:47;18.97;;;10.63;;
60306;SDS011;46155;52.364;6.580;2023-02-01T13:22:23;20.50;;;9.27;;
60306;SDS011;46155;52.364;6.580;2023-02-01T13:25:26;12.60;;;8.57;;
60306;SDS011;46155;52.364;6.580;2023-02-01T13:27:53;14.47;;;8.87;;
60306;SDS011;46155;52.364;6.580;2023-02-01T13:30:22;20.07;;;9.80;;
60306;SDS011;46155;52.364;6.580;2023-02-01T13:44:04;21.67;;;10.73;;
60306;SDS011;46155;52.364;6.580;2023-02-01T13:46:38;26.97;;;10.53;;
60306;SDS011;46155;52.364;6.580;2023-02-01T13:49:06;32.50;;;11.80;;
60306;SDS011;46155;52.364;6.580;2023-02-01T13:51:33;16.17;;;10.40;;
60306;SDS011;46155;52.364;6.580;2023-02-01T13:54:01;20.27;;;10.67;;
60306;SDS011;46155;52.364;6.580;2023-02-01T13:56:28;22.57;;;11.97;;
60306;SDS011;46155;52.364;6.580;2023-02-01T13:59:35;16.83;;;11.63;;
60306;SDS011;46155;52.364;6.580;2023-02-01T14:05:12;19.43;;;13.67;;
60306;SDS011;46155;52.364;6.580;2023-02-01T14:29:21;24.47;;;13.30;;
60306;SDS011;46155;52.364;6.580;2023-02-01T14:44:42;18.57;;;12.17;;
60306;SDS011;46155;52.364;6.580;2023-02-01T14:49:34;20.97;;;12.13;;
60306;SDS011;46155;52.364;6.580;2023-02-01T14:52:05;20.30;;;11.70;;
60306;SDS011;46155;52.364;6.580;2023-02-01T14:54:37;19.37;;;11.57;;
60306;SDS011;46155;52.364;6.580;2023-02-01T14:57:05;19.43;;;11.23;;
60306;SDS011;46155;52.364;6.580;2023-02-01T14:59:39;17.43;;;12.10;;
60306;SDS011;46155;52.364;6.580;2023-02-01T15:02:10;34.83;;;11.10;;
60306;SDS011;46155;52.364;6.580;2023-02-01T15:04:45;24.20;;;13.47;;
60306;SDS011;46155;52.364;6.580;2023-02-01T15:07:11;23.83;;;13.20;;
60306;SDS011;46155;52.364;6.580;2023-02-01T15:09:41;27.00;;;14.30;;
60306;SDS011;46155;52.364;6.580;2023-02-01T15:14:37;29.10;;;15.13;;
60306;SDS011;46155;52.364;6.580;2023-02-01T15:17:03;22.40;;;15.80;;
60306;SDS011;46155;52.364;6.580;2023-02-01T15:19:52;21.10;;;13.07;;
60306;SDS011;46155;52.364;6.580;2023-02-01T15:22:21;25.57;;;12.40;;
60306;SDS011;46155;52.364;6.580;2023-02-01T15:24:53;20.00;;;13.40;;
60306;SDS011;46155;52.364;6.580;2023-02-01T15:27:20;22.37;;;13.60;;
60306;SDS011;46155;52.364;6.580;2023-02-01T15:29:46;17.23;;;12.27;;
60306;SDS011;46155;52.364;6.580;2023-02-01T15:32:31;24.83;;;11.70;;
60306;SDS011;46155;52.364;6.580;2023-02-01T15:34:58;21.03;;;11.90;;
60306;SDS011;46155;52.364;6.580;2023-02-01T15:37:23;25.03;;;11.67;;
60306;SDS011;46155;52.364;6.580;2023-02-01T15:42:29;26.63;;;12.00;;
60306;SDS011;46155;52.364;6.580;2023-02-01T15:44:55;14.60;;;11.40;;
60306;SDS011;46155;52.364;6.580;2023-02-01T15:47:25;31.50;;;12.00;;
60306;SDS011;46155;52.364;6.580;2023-02-01T15:49:54;27.03;;;12.97;;
60306;SDS011;46155;52.364;6.580;2023-02-01T15:52:23;18.30;;;10.90;;
60306;SDS011;46155;52.364;6.580;2023-02-01T15:54:53;23.20;;;11.90;;
60306;SDS011;46155;52.364;6.580;2023-02-01T15:57:25;18.90;;;12.17;;
60306;SDS011;46155;52.364;6.580;2023-02-01T15:59:56;25.57;;;11.23;;
60306;SDS011;46155;52.364;6.580;2023-02-01T16:02:29;17.23;;;12.90;;
60306;SDS011;46155;52.364;6.580;2023-02-01T16:05:04;21.40;;;11.40;;
60306;SDS011;46155;52.364;6.580;2023-02-01T16:07:55;19.17;;;10.37;;
60306;SDS011;46155;52.364;6.580;2023-02-01T16:10:29;26.90;;;10.43;;
60306;SDS011;46155;52.364;6.580;2023-02-01T16:12:55;20.47;;;10.17;;
60306;SDS011;46155;52.364;6.580;2023-02-01T16:15:25;15.13;;;11.50;;
60306;SDS011;46155;52.364;6.580;2023-02-01T16:17:54;26.17;;;10.37;;
60306;SDS011;46155;52.364;6.580;2023-02-01T16:20:20;13.67;;;9.80;;
60306;SDS011;46155;52.364;6.580;2023-02-01T16:22:45;19.20;;;10.10;;
60306;SDS011;46155;52.364;6.580;2023-02-01T16:25:10;16.83;;;10.03;;
60306;SDS011;46155;52.364;6.580;2023-02-01T16:27:36;16.80;;;9.73;;
60306;SDS011;46155;52.364;6.580;2023-02-01T16:30:01;11.73;;;8.80;;
60306;SDS011;46155;52.364;6.580;2023-02-01T16:32:27;13.17;;;8.70;;
60306;SDS011;46155;52.364;6.580;2023-02-01T16:34:52;12.80;;;9.40;;
60306;SDS011;46155;52.364;6.580;2023-02-01T16:37:21;21.97;;;8.63;;
60306;SDS011;46155;52.364;6.580;2023-02-01T16:39:49;9.93;;;7.70;;
60306;SDS011;46155;52.364;6.580;2023-02-01T16:42:15;12.97;;;8.10;;
60306;SDS011;46155;52.364;6.580;2023-02-01T16:44:41;14.90;;;8.70;;
60306;SDS011;46155;52.364;6.580;2023-02-01T16:47:28;13.87;;;9.27;;
60306;SDS011;46155;52.364;6.580;2023-02-01T16:49:53;19.53;;;9.00;;
60306;SDS011;46155;52.364;6.580;2023-02-01T16:52:19;14.87;;;9.23;;
60306;SDS011;46155;52.364;6.580;2023-02-01T16:54:47;24.57;;;9.43;;
60306;SDS011;46155;52.364;6.580;2023-02-01T16:57:14;24.73;;;10.57;;
60306;SDS011;46155;52.364;6.580;2023-02-01T16:59:41;19.27;;;9.43;;
60306;SDS011;46155;52.364;6.580;2023-02-01T17:02:11;16.60;;;10.53;;
60306;SDS011;46155;52.364;6.580;2023-02-01T17:04:40;19.07;;;10.20;;
60306;SDS011;46155;52.364;6.580;2023-02-01T17:07:06;12.83;;;11.30;;
60306;SDS011;46155;52.364;6.580;2023-02-01T17:09:37;12.50;;;10.97;;
60306;SDS011;46155;52.364;6.580;2023-02-01T17:12:03;27.73;;;11.80;;
60306;SDS011;46155;52.364;6.580;2023-02-01T17:14:30;24.43;;;11.23;;
60306;SDS011;46155;52.364;6.580;2023-02-01T17:17:00;24.40;;;10.97;;
60306;SDS011;46155;52.364;6.580;2023-02-01T17:19:26;13.47;;;12.03;;
60306;SDS011;46155;52.364;6.580;2023-02-01T17:21:52;24.53;;;12.77;;
60306;SDS011;46155;52.364;6.580;2023-02-01T17:24:22;25.17;;;12.67;;
60306;SDS011;46155;52.364;6.580;2023-02-01T17:26:48;31.87;;;13.43;;
60306;SDS011;46155;52.364;6.580;2023-02-01T17:29:15;18.60;;;13.20;;
60306;SDS011;46155;52.364;6.580;2023-02-01T17:31:42;19.60;;;12.63;;
60306;SDS011;46155;52.364;6.580;2023-02-01T17:34:10;21.07;;;13.20;;
60306;SDS011;46155;52.364;6.580;2023-02-01T17:36:39;16.73;;;14.77;;
60306;SDS011;46155;52.364;6.580;2023-02-01T17:39:06;22.03;;;13.90;;
60306;SDS011;46155;52.364;6.580;2023-02-01T17:41:31;33.70;;;13.40;;
60306;SDS011;46155;52.364;6.580;2023-02-01T17:43:57;20.57;;;13.87;;
60306;SDS011;46155;52.364;6.580;2023-02-01T17:46:23;20.67;;;13.83;;
60306;SDS011;46155;52.364;6.580;2023-02-01T17:48:57;38.90;;;15.40;;
60306;SDS011;46155;52.364;6.580;2023-02-01T17:51:25;25.27;;;14.97;;
60306;SDS011;46155;52.364;6.580;2023-02-01T17:53:52;24.87;;;14.57;;
60306;SDS011;46155;52.364;6.580;2023-02-01T17:56:18;19.13;;;13.97;;
60306;SDS011;46155;52.364;6.580;2023-02-01T17:58:46;22.00;;;13.57;;
60306;SDS011;46155;52.364;6.580;2023-02-01T18:01:18;28.43;;;16.03;;
60306;SDS011;46155;52.364;6.580;2023-02-01T18:03:45;14.47;;;13.03;;
60306;SDS011;46155;52.364;6.580;2023-02-01T18:06:12;18.40;;;12.30;;
60306;SDS011;46155;52.364;6.580;2023-02-01T18:08:39;12.00;;;10.87;;
60306;SDS011;46155;52.364;6.580;2023-02-01T18:11:07;13.47;;;12.40;;
60306;SDS011;46155;52.364;6.580;2023-02-01T18:13:36;13.90;;;9.47;;
60306;SDS011;46155;52.364;6.580;2023-02-01T18:16:01;9.20;;;8.50;;
60306;SDS011;46155;52.364;6.580;2023-02-01T18:18:28;13.97;;;7.10;;
60306;SDS011;46155;52.364;6.580;2023-02-01T18:20:55;14.53;;;7.87;;
60306;SDS011;46155;52.364;6.580;2023-02-01T18:23:21;8.63;;;8.03;;
60306;SDS011;46155;52.364;6.580;2023-02-01T18:25:48;12.30;;;9.70;;
60306;SDS011;46155;52.364;6.580;2023-02-01T18:28:15;9.73;;;8.93;;
60306;SDS011;46155;52.364;6.580;2023-02-01T18:30:42;8.53;;;8.03;;
60306;SDS011;46155;52.364;6.580;2023-02-01T18:33:10;10.33;;;8.40;;
60306;SDS011;46155;52.364;6.580;2023-02-01T18:35:37;17.77;;;9.23;;
60306;SDS011;46155;52.364;6.580;2023-02-01T18:38:03;9.67;;;8.77;;
60306;SDS011;46155;52.364;6.580;2023-02-01T18:40:32;11.43;;;9.20;;
60306;SDS011;46155;52.364;6.580;2023-02-01T18:43:00;10.23;;;9.43;;
60306;SDS011;46155;52.364;6.580;2023-02-01T18:45:28;10.13;;;9.13;;
60306;SDS011;46155;52.364;6.580;2023-02-01T18:47:54;11.83;;;10.63;;
60306;SDS011;46155;52.364;6.580;2023-02-01T18:50:20;10.17;;;9.33;;
60306;SDS011;46155;52.364;6.580;2023-02-01T18:52:45;17.67;;;11.40;;
60306;SDS011;46155;52.364;6.580;2023-02-01T18:55:11;18.50;;;12.33;;
60306;SDS011;46155;52.364;6.580;2023-02-01T18:57:37;12.60;;;11.23;;
60306;SDS011;46155;52.364;6.580;2023-02-01T19:00:05;19.03;;;12.83;;
60306;SDS011;46155;52.364;6.580;2023-02-01T19:02:31;17.23;;;13.47;;
60306;SDS011;46155;52.364;6.580;2023-02-01T19:04:57;13.73;;;11.37;;
60306;SDS011;46155;52.364;6.580;2023-02-01T19:07:22;17.10;;;13.27;;
60306;SDS011;46155;52.364;6.580;2023-02-01T19:09:48;15.50;;;13.90;;
60306;SDS011;46155;52.364;6.580;2023-02-01T19:12:13;17.13;;;14.37;;
60306;SDS011;46155;52.364;6.580;2023-02-01T19:14:39;20.63;;;14.00;;
60306;SDS011;46155;52.364;6.580;2023-02-01T19:17:04;15.37;;;13.87;;
60306;SDS011;46155;52.364;6.580;2023-02-01T19:19:29;16.00;;;14.30;;
60306;SDS011;46155;52.364;6.580;2023-02-01T19:21:55;18.70;;;13.23;;
60306;SDS011;46155;52.364;6.580;2023-02-01T19:24:20;17.47;;;15.57;;
60306;SDS011;46155;52.364;6.580;2023-02-01T19:26:47;18.63;;;14.93;;
60306;SDS011;46155;52.364;6.580;2023-02-01T19:29:14;36.17;;;16.40;;
60306;SDS011;46155;52.364;6.580;2023-02-01T19:31:39;17.33;;;15.87;;
60306;SDS011;46155;52.364;6.580;2023-02-01T19:34:04;22.47;;;15.43;;
60306;SDS011;46155;52.364;6.580;2023-02-01T19:36:30;26.10;;;15.63;;
60306;SDS011;46155;52.364;6.580;2023-02-01T19:38:55;25.10;;;16.07;;
60306;SDS011;46155;52.364;6.580;2023-02-01T19:41:22;16.37;;;14.63;;
60306;SDS011;46155;52.364;6.580;2023-02-01T19:43:47;20.70;;;15.90;;
60306;SDS011;46155;52.364;6.580;2023-02-01T19:46:12;30.37;;;15.10;;
60306;SDS011;46155;52.364;6.580;2023-02-01T19:48:38;26.63;;;16.87;;
60306;SDS011;46155;52.364;6.580;2023-02-01T19:51:03;25.87;;;16.80;;
60306;SDS011;46155;52.364;6.580;2023-02-01T19:53:29;24.93;;;17.30;;
60306;SDS011;46155;52.364;6.580;2023-02-01T19:55:55;27.97;;;17.07;;
60306;SDS011;46155;52.364;6.580;2023-02-01T19:58:22;19.53;;;16.83;;
60306;SDS011;46155;52.364;6.580;2023-02-01T20:00:51;32.07;;;16.83;;
60306;SDS011;46155;52.364;6.580;2023-02-01T20:03:18;25.63;;;18.27;;
60306;SDS011;46155;52.364;6.580;2023-02-01T20:05:44;26.60;;;17.67;;
60306;SDS011;46155;52.364;6.580;2023-02-01T20:08:09;21.47;;;17.43;;
60306;SDS011;46155;52.364;6.580;2023-02-01T20:10:34;24.03;;;18.33;;
60306;SDS011;46155;52.364;6.580;2023-02-01T20:12:59;24.43;;;16.70;;
60306;SDS011;46155;52.364;6.580;2023-02-01T20:15:25;28.57;;;17.50;;
60306;SDS011;46155;52.364;6.580;2023-02-01T20:17:52;25.27;;;15.90;;
60306;SDS011;46155;52.364;6.580;2023-02-01T20:20:17;18.93;;;16.93;;
60306;SDS011;46155;52.364;6.580;2023-02-01T20:22:43;21.63;;;15.87;;
60306;SDS011;46155;52.364;6.580;2023-02-01T20:25:10;32.50;;;17.30;;
60306;SDS011;46155;52.364;6.580;2023-02-01T20:27:36;24.23;;;16.67;;
60306;SDS011;46155;52.364;6.580;2023-02-01T20:30:02;26.93;;;15.00;;
60306;SDS011;46155;52.364;6.580;2023-02-01T20:32:27;23.50;;;16.43;;
60306;SDS011;46155;52.364;6.580;2023-02-01T20:34:53;33.20;;;16.07;;
60306;SDS011;46155;52.364;6.580;2023-02-01T20:37:19;35.50;;;16.50;;